createdAt,value
2022-08-29T00:04:43.302Z,15.57
2022-08-29T00:09:45.805Z,15.53
2022-08-29T00:14:48.357Z,15.48
2022-08-29T00:19:50.908Z,15.41
2022-08-29T00:24:53.338Z,15.37
2022-08-29T00:29:55.919Z,15.18
2022-08-29T00:34:58.595Z,15.15
2022-08-29T00:40:01.363Z,15.18
2022-08-29T00:45:03.892Z,15.1
2022-08-29T00:50:06.485Z,14.97
2022-08-29T00:55:09.106Z,15.05
2022-08-29T01:00:11.714Z,15.11
2022-08-29T01:05:14.451Z,15.09
2022-08-29T01:10:17.164Z,15.03
2022-08-29T01:15:19.897Z,14.96
2022-08-29T01:20:22.493Z,14.91
2022-08-29T01:25:25.220Z,14.86
2022-08-29T01:30:27.819Z,14.89
2022-08-29T01:35:30.380Z,14.85
2022-08-29T01:40:33.134Z,14.72
2022-08-29T01:45:35.530Z,14.7
2022-08-29T01:50:38.148Z,14.62
2022-08-29T01:55:40.858Z,14.54
2022-08-29T02:00:43.804Z,14.39
2022-08-29T02:05:46.162Z,14.37
2022-08-29T02:10:48.903Z,14.35
2022-08-29T02:15:51.563Z,14.23
2022-08-29T02:20:54.355Z,14.25
2022-08-29T02:25:57.140Z,14.24
2022-08-29T02:30:59.774Z,14.17
2022-08-29T02:36:02.403Z,14.28
2022-08-29T02:41:05.055Z,14.28
2022-08-29T02:46:07.905Z,14.31
2022-08-29T02:51:10.576Z,14.36
2022-08-29T02:56:14.472Z,14.34
2022-08-29T03:01:16.180Z,14.41
2022-08-29T03:06:18.703Z,14.37
2022-08-29T03:11:21.223Z,14.32
2022-08-29T03:16:23.938Z,14.3
2022-08-29T03:21:26.514Z,14.28
2022-08-29T03:26:29.167Z,14.19
2022-08-29T03:31:31.918Z,14.2
2022-08-29T03:36:34.914Z,14.16
2022-08-29T03:41:37.699Z,14.21
2022-08-29T03:46:40.448Z,14.18
2022-08-29T03:51:43.236Z,14.12
2022-08-29T03:56:45.889Z,14.01
2022-08-29T04:01:48.535Z,14.01
2022-08-29T04:06:50.808Z,13.98
2022-08-29T04:11:53.498Z,13.96
2022-08-29T04:16:56.150Z,14.02
2022-08-29T04:21:58.850Z,14.06
2022-08-29T04:27:01.420Z,14.06
2022-08-29T04:32:04.034Z,14.13
2022-08-29T04:37:06.662Z,14.28
2022-08-29T04:42:09.341Z,14.45
2022-08-29T04:47:12.169Z,14.53
2022-08-29T04:52:14.846Z,14.71
2022-08-29T04:57:17.590Z,14.78
2022-08-29T05:02:20.351Z,14.96
2022-08-29T05:07:23.027Z,15.16
2022-08-29T05:12:25.875Z,15.26
2022-08-29T05:17:28.757Z,15.36
2022-08-29T05:22:31.409Z,15.47
2022-08-29T05:27:34.054Z,15.53
2022-08-29T05:32:36.542Z,15.72
2022-08-29T05:37:39.320Z,15.86
2022-08-29T05:42:42.004Z,15.96
2022-08-29T05:47:44.701Z,16.11
2022-08-29T05:52:47.309Z,16.4
2022-08-29T05:57:49.930Z,16.52
2022-08-29T06:02:52.620Z,16.52
2022-08-29T06:07:54.911Z,16.71
2022-08-29T06:12:57.599Z,16.96
2022-08-29T06:18:00.277Z,16.99
2022-08-29T06:23:03.323Z,17.02
2022-08-29T06:28:05.928Z,17.02
2022-08-29T06:33:08.652Z,17.12
2022-08-29T06:38:13.967Z,16.95
2022-08-29T06:43:13.902Z,16.78
2022-08-29T06:48:16.374Z,16.9
2022-08-29T06:58:21.803Z,17.22
2022-08-29T07:03:24.720Z,17.4
2022-08-29T07:08:27.520Z,17.73
2022-08-29T07:18:32.551Z,18.06
2022-08-29T07:28:38.016Z,17.97
2022-08-29T07:33:40.698Z,18.22
2022-08-29T07:38:43.475Z,18.08
2022-08-29T07:43:45.913Z,17.94
2022-08-29T07:48:51.338Z,17.97
2022-08-29T07:53:57.534Z,18.14
2022-08-29T07:59:00.310Z,18.22
2022-08-29T08:04:02.949Z,18.24
2022-08-29T08:19:11.394Z,18.94
2022-08-29T08:24:18.835Z,19.51
2022-08-29T08:34:36.997Z,19.25
2022-08-29T08:39:39.631Z,19.41
2022-08-29T08:44:42.451Z,19.65
2022-08-29T08:50:03.361Z,19.77
2022-08-29T08:55:06.049Z,19.49
2022-08-29T09:00:08.844Z,19.83
2022-08-29T09:05:11.313Z,19.95
2022-08-29T09:10:13.948Z,19.77
2022-08-29T09:15:19.538Z,20.33
2022-08-29T09:25:27.998Z,20.48
2022-08-29T09:30:27.593Z,20.61
2022-08-29T09:35:30.194Z,20.35
2022-08-29T09:40:32.882Z,20.72
2022-08-29T09:45:35.664Z,20.6
2022-08-29T09:50:38.399Z,20.61
2022-08-29T09:55:44.738Z,20.24
2022-08-29T10:00:46.721Z,20.78
2022-08-29T10:10:52.144Z,21.49
2022-08-29T10:15:55.350Z,22.05
2022-08-29T10:26:00.966Z,21.92
2022-08-29T10:31:03.621Z,22.21
2022-08-29T10:36:06.365Z,22.71
2022-08-29T10:41:09.123Z,22.97
2022-08-29T10:46:11.833Z,22.56
2022-08-29T10:51:14.319Z,22.23
2022-08-29T10:56:17.013Z,21.87
2022-08-29T11:01:19.788Z,21.71
2022-08-29T11:06:22.334Z,21.83
2022-08-29T11:11:25.008Z,22
2022-08-29T11:16:27.596Z,22.05
2022-08-29T11:21:30.345Z,21.88
2022-08-29T11:26:33.134Z,22.29
2022-08-29T11:36:38.718Z,22.84
2022-08-29T11:41:41.397Z,22.95
2022-08-29T11:51:47.906Z,23.08
2022-08-29T12:01:56.213Z,23.91
2022-08-29T12:07:01.060Z,23.62
2022-08-29T12:12:07.293Z,24.15
2022-08-29T12:17:10.025Z,24.15
2022-08-29T12:22:14.112Z,24.03
2022-08-29T12:27:15.819Z,24.22
2022-08-29T12:32:22.214Z,24.81
2022-08-29T12:37:21.250Z,24.3
2022-08-29T12:42:24.099Z,24.57
2022-08-29T12:47:26.683Z,24.57
2022-08-29T12:52:29.589Z,24.03
2022-08-29T12:57:32.812Z,24.49
2022-08-29T13:02:35.486Z,24.01
2022-08-29T13:07:38.113Z,23.93
2022-08-29T13:12:40.684Z,23.77
2022-08-29T13:17:43.301Z,23.77
2022-08-29T13:22:45.909Z,23.51
2022-08-29T13:27:48.573Z,23.75
2022-08-29T13:32:51.428Z,24
2022-08-29T13:37:54.096Z,23.75
2022-08-29T13:42:57.007Z,24.19
2022-08-29T13:47:59.860Z,24.45
2022-08-29T13:53:02.429Z,24.49
2022-08-29T13:58:05.165Z,24.64
2022-08-29T14:03:07.928Z,24.46
2022-08-29T14:08:10.555Z,24.57
2022-08-29T14:13:13.094Z,24.78
2022-08-29T14:18:15.599Z,24.45
2022-08-29T14:23:22.683Z,24.24
2022-08-29T14:28:20.883Z,24.19
2022-08-29T14:33:23.585Z,24.33
2022-08-29T14:38:26.169Z,23.76
2022-08-29T14:43:28.771Z,23.89
2022-08-29T14:48:31.271Z,24.11
2022-08-29T14:53:37.868Z,24.45
2022-08-29T14:58:36.988Z,24.41
2022-08-29T15:03:39.449Z,24.09
2022-08-29T15:08:42.231Z,24.01
2022-08-29T15:13:44.941Z,24.46
2022-08-29T15:23:50.263Z,24
2022-08-29T15:28:52.835Z,24.32
2022-08-29T15:33:55.552Z,24.14
2022-08-29T15:38:58.537Z,24.12
2022-08-29T15:44:01.202Z,24.02
2022-08-29T15:49:03.590Z,23.61
2022-08-29T15:54:06.222Z,23.97
2022-08-29T15:59:09.003Z,23.86
2022-08-29T16:04:11.419Z,23.62
2022-08-29T16:09:15.025Z,23.41
2022-08-29T16:14:47.082Z,23.11
2022-08-29T16:24:22.107Z,23.22
2022-08-29T16:34:27.726Z,23.42
2022-08-29T16:39:30.186Z,23.24
2022-08-29T16:44:32.685Z,23.09
2022-08-29T16:49:38.035Z,22.72
2022-08-29T16:54:40.774Z,22.63
2022-08-29T16:59:43.686Z,22.56
2022-08-29T17:04:46.169Z,22.56
2022-08-29T17:09:49.004Z,22.43
2022-08-29T17:14:54.870Z,22.31
2022-08-29T17:24:57.048Z,21.97
2022-08-29T17:29:59.632Z,21.84
2022-08-29T17:35:02.155Z,21.72
2022-08-29T17:40:04.704Z,21.62
2022-08-29T17:45:07.279Z,21.5
2022-08-29T17:55:12.614Z,21.36
2022-08-29T18:00:15.388Z,21.22
2022-08-29T18:05:18.136Z,21.16
2022-08-29T18:10:20.606Z,21.02
2022-08-29T18:15:23.629Z,20.85
2022-08-29T18:25:28.528Z,20.61
2022-08-29T18:30:31.239Z,20.44
2022-08-29T18:35:33.659Z,20.36
2022-08-29T18:40:39.528Z,20.33
2022-08-29T18:45:39.436Z,20.2
2022-08-29T18:50:41.852Z,20.11
2022-08-29T19:05:49.834Z,19.85
2022-08-29T19:10:53.881Z,19.76
2022-08-29T19:15:55.112Z,19.64
2022-08-29T19:20:57.734Z,19.6
2022-08-29T19:26:00.333Z,19.56
2022-08-29T19:31:03.150Z,19.64
2022-08-29T19:36:05.853Z,19.49
2022-08-29T19:41:08.497Z,19.42
2022-08-29T19:46:11.275Z,19.44
2022-08-29T19:51:14.313Z,19.3
2022-08-29T19:56:16.917Z,19.27
2022-08-29T20:01:19.515Z,19.3
2022-08-29T20:06:22.040Z,19.23
2022-08-29T20:11:24.804Z,19.16
2022-08-29T20:16:27.627Z,19.27
2022-08-29T20:21:30.363Z,19.24
2022-08-29T20:26:33.066Z,19.13
2022-08-29T20:31:35.821Z,19.04
2022-08-29T20:36:38.717Z,18.99
2022-08-29T20:46:43.797Z,18.78
2022-08-29T20:51:46.377Z,18.7
2022-08-29T20:56:49.038Z,18.64
2022-08-29T21:01:51.964Z,18.6
2022-08-29T21:06:54.512Z,18.55
2022-08-29T21:11:57.116Z,18.52
2022-08-29T21:16:59.807Z,18.49
2022-08-29T21:22:02.897Z,18.43
2022-08-29T21:27:05.529Z,18.35
2022-08-29T21:32:08.109Z,18.28
2022-08-29T21:42:13.535Z,18.08
2022-08-29T21:47:17.924Z,18.1
2022-08-29T21:52:18.812Z,18.07
2022-08-29T21:57:21.175Z,18.03
2022-08-29T22:02:23.649Z,18.01
2022-08-29T22:07:26.258Z,17.95
2022-08-29T22:12:28.883Z,17.85
2022-08-29T22:17:31.562Z,17.8
2022-08-29T22:22:34.101Z,17.91
2022-08-29T22:27:36.903Z,17.91
2022-08-29T22:32:39.581Z,17.87
2022-08-29T22:37:42.247Z,17.84
2022-08-29T22:42:45.166Z,17.82
2022-08-29T22:47:47.753Z,17.82
2022-08-29T22:52:50.338Z,17.77
2022-08-29T22:57:52.937Z,17.8
2022-08-29T23:07:58.130Z,17.82
2022-08-29T23:13:00.613Z,17.86
2022-08-29T23:18:03.240Z,17.87
2022-08-29T23:23:08.879Z,17.89
2022-08-29T23:28:11.321Z,17.93
2022-08-29T23:33:13.954Z,17.87
2022-08-29T23:38:16.783Z,17.83
2022-08-29T23:43:19.449Z,17.82
2022-08-29T23:48:22.187Z,17.79
2022-08-29T23:58:27.461Z,17.55
